Time;durP1;ratioP1;P1;durP2;ratioP2;P2;SDS_P1;SDS_P2;PMS_P1;PMS_P2;Temp;Humidity;BMP_temperature;BMP_pressure;BME280_temperature;BME280_humidity;BME280_pressure;Samples;Min_cycle;Max_cycle;Signal;HPM_P1;HPM_P2
2022/10/22 00:02:22;;;;;;;1.90;1.52;;;16.90;68.70;;;;;;5093560;28;20427;-74
2022/10/22 00:04:49;;;;;;;3.03;1.80;;;16.90;68.70;;;;;;5092254;28;20063;-74
2022/10/22 00:07:16;;;;;;;2.50;1.80;;;16.90;68.70;;;;;;5073885;28;20060;-74
2022/10/22 00:09:42;;;;;;;1.80;1.50;;;16.90;68.70;;;;;;5073881;28;20052;-74
2022/10/22 00:12:11;;;;;;;1.83;1.60;;;16.90;68.70;;;;;;5073506;28;20526;-74
2022/10/22 00:14:38;;;;;;;2.13;1.60;;;16.90;68.70;;;;;;5073413;28;20052;-74
2022/10/22 00:17:05;;;;;;;2.40;1.70;;;16.90;68.80;;;;;;5081773;28;20055;-74
2022/10/22 00:19:32;;;;;;;5.03;1.90;;;16.90;68.80;;;;;;5073785;28;20054;-74
2022/10/22 00:21:58;;;;;;;2.35;1.52;;;16.90;68.70;;;;;;5073397;28;20508;-74
2022/10/22 00:24:25;;;;;;;2.72;1.60;;;16.80;68.70;;;;;;5073232;28;20059;-74
2022/10/22 00:26:52;;;;;;;1.92;1.63;;;16.90;68.80;;;;;;5091273;28;20060;-74
2022/10/22 00:29:21;;;;;;;2.22;1.60;;;16.80;68.70;;;;;;5093756;28;20058;-74
2022/10/22 00:31:49;;;;;;;2.15;1.63;;;16.90;68.80;;;;;;5094021;28;20503;-74
2022/10/22 00:34:16;;;;;;;2.30;1.80;;;16.80;68.80;;;;;;5072802;28;20427;-74
2022/10/22 00:36:43;;;;;;;2.50;1.80;;;16.80;68.80;;;;;;5073106;28;20059;-74
2022/10/22 00:39:10;;;;;;;2.65;1.80;;;16.80;68.80;;;;;;5072919;28;20063;-74
2022/10/22 00:41:36;;;;;;;1.90;1.45;;;16.80;68.80;;;;;;5073042;28;20044;-74
2022/10/22 00:44:04;;;;;;;2.28;1.50;;;16.80;68.80;;;;;;5077316;28;20071;-74
2022/10/22 00:46:32;;;;;;;4.18;1.77;;;16.80;68.80;;;;;;5072973;28;20059;-74
2022/10/22 00:49:00;;;;;;;2.58;1.40;;;16.80;68.80;;;;;;5078915;28;20140;-74
2022/10/22 00:51:28;;;;;;;1.75;1.52;;;16.80;68.80;;;;;;5094383;28;20078;-74
2022/10/22 00:53:56;;;;;;;2.28;1.55;;;16.80;68.80;;;;;;5092203;28;20055;-74
2022/10/22 00:56:23;;;;;;;1.98;1.60;;;16.80;68.80;;;;;;5093082;28;20055;-74
2022/10/22 00:58:53;;;;;;;2.35;1.83;;;16.80;68.80;;;;;;5092910;28;20055;-74
2022/10/22 01:01:22;;;;;;;2.20;1.60;;;16.80;68.80;;;;;;5093084;28;20082;-74
2022/10/22 01:03:50;;;;;;;2.65;1.75;;;16.80;68.80;;;;;;5092208;28;20052;-74
2022/10/22 01:06:20;;;;;;;1.92;1.50;;;16.80;68.80;;;;;;5094019;28;20401;-74
2022/10/22 01:08:49;;;;;;;3.15;1.70;;;16.80;68.80;;;;;;5093005;28;20052;-74
2022/10/22 01:11:19;;;;;;;1.65;1.55;;;16.80;68.80;;;;;;5092304;28;20390;-74
2022/10/22 01:13:49;;;;;;;2.42;1.80;;;16.80;68.70;;;;;;5076586;28;20056;-74
2022/10/22 01:16:18;;;;;;;2.60;1.80;;;16.80;68.80;;;;;;5073573;28;20048;-74
2022/10/22 01:18:47;;;;;;;2.67;1.60;;;16.70;68.80;;;;;;5072766;28;20059;-74
2022/10/22 01:21:21;;;;;;;1.67;1.50;;;16.80;68.80;;;;;;5071934;28;20413;-74
2022/10/22 01:24:17;;;;;;;1.85;1.50;;;16.80;68.80;;;;;;5087803;28;20052;-74
2022/10/22 01:26:59;;;;;;;1.83;1.50;;;16.80;68.70;;;;;;5092764;28;20062;-74
2022/10/22 01:29:28;;;;;;;1.85;1.50;;;16.70;68.70;;;;;;5092583;28;20483;-74
2022/10/22 01:31:59;;;;;;;2.03;1.60;;;16.70;68.70;;;;;;5091676;28;20060;-74
2022/10/22 01:34:25;;;;;;;2.63;1.50;;;16.70;68.70;;;;;;5073416;28;20078;-74
2022/10/22 01:36:52;;;;;;;2.20;1.60;;;16.70;68.70;;;;;;5072261;28;20066;-74
2022/10/22 01:39:19;;;;;;;2.05;1.67;;;16.70;68.70;;;;;;5072059;28;20063;-74
2022/10/22 01:41:46;;;;;;;2.28;1.50;;;16.70;68.70;;;;;;5072673;28;20433;-74
2022/10/22 01:44:24;;;;;;;1.75;1.50;;;16.70;68.70;;;;;;5090954;28;20067;-74
2022/10/22 01:46:53;;;;;;;2.28;1.67;;;16.70;68.70;;;;;;5092562;28;20404;-74
2022/10/22 01:49:23;;;;;;;2.35;1.75;;;16.70;68.70;;;;;;5092195;28;20481;-74
2022/10/22 01:51:54;;;;;;;1.55;1.33;;;16.70;68.70;;;;;;5091364;28;20078;-74
2022/10/22 01:54:27;;;;;;;1.90;1.60;;;16.70;68.70;;;;;;5088230;28;20048;-74
2022/10/22 01:56:58;;;;;;;2.28;1.60;;;16.70;68.70;;;;;;5071611;28;20058;-74
2022/10/22 01:59:30;;;;;;;1.88;1.58;;;16.70;68.70;;;;;;5072052;28;20140;-74
2022/10/22 02:01:59;;;;;;;1.92;1.45;;;16.70;68.70;;;;;;5071402;28;20052;-74
2022/10/22 02:04:27;;;;;;;1.95;1.50;;;16.70;68.80;;;;;;5071737;28;20060;-74
2022/10/22 02:06:55;;;;;;;2.00;1.50;;;16.70;68.70;;;;;;5071544;28;20667;-74
2022/10/22 02:09:22;;;;;;;1.75;1.50;;;16.70;68.80;;;;;;5071438;28;20558;-74
2022/10/22 02:11:49;;;;;;;1.90;1.65;;;16.70;68.80;;;;;;5072214;28;20052;-74
2022/10/22 02:14:15;;;;;;;1.83;1.55;;;16.70;68.80;;;;;;5086851;28;20396;-74
2022/10/22 02:16:43;;;;;;;2.03;1.67;;;16.60;68.70;;;;;;5071298;28;20412;-74
2022/10/22 02:19:19;;;;;;;1.83;1.40;;;16.60;68.70;;;;;;5071125;28;20052;-73
2022/10/22 02:21:46;;;;;;;2.75;1.60;;;16.70;68.80;;;;;;5071140;28;20074;-73
2022/10/22 02:24:12;;;;;;;2.13;1.50;;;16.60;68.80;;;;;;5085563;28;20060;-73
2022/10/22 02:26:40;;;;;;;2.22;1.70;;;16.60;68.80;;;;;;5071284;28;20063;-73
2022/10/22 02:29:13;;;;;;;1.80;1.55;;;16.60;68.80;;;;;;5070812;28;20426;-74
2022/10/22 02:31:41;;;;;;;1.98;1.58;;;16.60;68.80;;;;;;5070994;28;20063;-73
2022/10/22 02:34:10;;;;;;;2.15;1.60;;;16.60;68.80;;;;;;5071011;28;20048;-73
2022/10/22 02:36:38;;;;;;;3.63;1.50;;;16.60;69.30;;;;;;5072027;28;20409;-73
2022/10/22 02:39:04;;;;;;;2.25;1.80;;;16.60;68.80;;;;;;5072367;28;20386;-73
2022/10/22 02:41:31;;;;;;;2.33;1.50;;;16.60;68.80;;;;;;5070714;28;20057;-73
2022/10/22 02:43:58;;;;;;;1.90;1.58;;;16.60;68.80;;;;;;5070618;28;20049;-73
2022/10/22 02:46:24;;;;;;;2.08;1.50;;;16.60;68.80;;;;;;5071159;28;20057;-73
2022/10/22 02:48:51;;;;;;;2.20;1.63;;;16.60;68.80;;;;;;5071035;28;20062;-73
2022/10/22 02:51:18;;;;;;;1.60;1.50;;;16.60;68.80;;;;;;5071397;28;20045;-73
2022/10/22 02:53:46;;;;;;;2.60;1.50;;;16.60;68.90;;;;;;5070847;28;20044;-73
2022/10/22 02:56:13;;;;;;;2.10;1.50;;;16.60;68.80;;;;;;5070906;28;20063;-73
2022/10/22 02:58:40;;;;;;;1.67;1.55;;;16.60;68.80;;;;;;5070891;28;20500;-74
2022/10/22 03:01:06;;;;;;;1.85;1.55;;;16.60;68.80;;;;;;5071444;28;20052;-74
2022/10/22 03:03:33;;;;;;;2.30;1.45;;;16.60;68.80;;;;;;5069638;28;20400;-74
2022/10/22 03:06:00;;;;;;;1.77;1.40;;;16.60;68.90;;;;;;5070877;28;20402;-74
2022/10/22 03:08:27;;;;;;;1.88;1.65;;;16.60;68.90;;;;;;5070591;28;20048;-74
2022/10/22 03:10:55;;;;;;;1.83;1.30;;;16.60;68.90;;;;;;5070149;28;20060;-74
2022/10/22 03:13:21;;;;;;;2.25;1.60;;;16.60;68.90;;;;;;5071750;28;20480;-74
2022/10/22 03:15:49;;;;;;;1.73;1.50;;;16.50;68.80;;;;;;5070351;28;20048;-74
2022/10/22 03:18:15;;;;;;;2.63;1.40;;;16.60;68.90;;;;;;5070851;28;20416;-74
2022/10/22 03:20:42;;;;;;;2.10;1.50;;;16.40;70.10;;;;;;5070275;28;20052;-74
2022/10/22 03:23:09;;;;;;;1.80;1.45;;;16.50;68.80;;;;;;5070244;28;20414;-74
2022/10/22 03:25:36;;;;;;;2.08;1.58;;;16.50;68.80;;;;;;5070488;28;20505;-74
2022/10/22 03:28:05;;;;;;;1.90;1.52;;;16.50;68.80;;;;;;5070294;28;20049;-74
2022/10/22 03:30:32;;;;;;;1.65;1.40;;;16.60;68.90;;;;;;5082410;28;20549;-74
2022/10/22 03:32:59;;;;;;;1.60;1.38;;;16.50;68.80;;;;;;5090721;28;20047;-74
2022/10/22 03:35:25;;;;;;;2.78;1.40;;;16.50;68.80;;;;;;5090524;28;20060;-74
2022/10/22 03:37:52;;;;;;;1.65;1.38;;;16.50;68.80;;;;;;5090768;28;20062;-74
2022/10/22 03:40:19;;;;;;;1.90;1.40;;;16.50;68.80;;;;;;5079882;28;20063;-74
2022/10/22 03:42:46;;;;;;;1.77;1.40;;;16.50;69.30;;;;;;5070322;28;20045;-74
2022/10/22 03:45:14;;;;;;;1.45;1.35;;;16.50;68.90;;;;;;5069971;28;20053;-74
2022/10/22 03:47:40;;;;;;;2.03;1.45;;;16.50;68.90;;;;;;5070421;28;20054;-74
2022/10/22 03:50:08;;;;;;;1.88;1.58;;;16.50;68.90;;;;;;5078365;28;20515;-74
2022/10/22 03:52:36;;;;;;;2.00;1.40;;;16.50;68.90;;;;;;5090664;28;20062;-74
2022/10/22 03:55:03;;;;;;;1.85;1.30;;;16.50;68.90;;;;;;5090531;28;20062;-74
2022/10/22 03:57:30;;;;;;;2.15;1.40;;;16.50;68.90;;;;;;5090557;28;20051;-74
2022/10/22 03:59:57;;;;;;;1.83;1.50;;;16.50;68.90;;;;;;5084300;28;20055;-74
2022/10/22 04:02:25;;;;;;;2.03;1.48;;;16.50;68.90;;;;;;5070298;28;20059;-74
2022/10/22 04:04:51;;;;;;;1.70;1.38;;;16.50;68.90;;;;;;5070048;28;20420;-74
2022/10/22 04:07:18;;;;;;;1.70;1.40;;;16.50;68.90;;;;;;5070139;28;20083;-74
2022/10/22 04:09:45;;;;;;;2.40;1.50;;;16.50;68.90;;;;;;5075863;28;20507;-74
2022/10/22 04:12:11;;;;;;;2.40;1.52;;;16.50;68.90;;;;;;5089690;28;20052;-74
2022/10/22 04:14:38;;;;;;;1.30;1.20;;;16.50;68.90;;;;;;5093302;28;20044;-74
2022/10/22 04:17:05;;;;;;;1.98;1.45;;;16.50;68.90;;;;;;5094041;28;20075;-74
2022/10/22 04:19:33;;;;;;;1.85;1.50;;;16.50;68.90;;;;;;5091138;28;20052;-74
2022/10/22 04:21:59;;;;;;;2.38;1.45;;;16.50;68.90;;;;;;5073455;28;20051;-74
2022/10/22 04:24:26;;;;;;;1.83;1.40;;;16.50;68.90;;;;;;5073118;28;20054;-74
2022/10/22 04:26:54;;;;;;;2.38;1.60;;;16.50;68.90;;;;;;5073600;28;20056;-74
2022/10/22 04:29:21;;;;;;;1.90;1.45;;;16.50;68.90;;;;;;5073975;28;20060;-74
2022/10/22 04:31:48;;;;;;;1.50;1.40;;;16.40;68.80;;;;;;5092297;28;20050;-74
2022/10/22 04:34:14;;;;;;;2.30;1.45;;;16.50;68.90;;;;;;5093320;28;20481;-74
2022/10/22 04:36:42;;;;;;;1.73;1.33;;;16.50;68.90;;;;;;5093898;28;20507;-74
2022/10/22 04:39:09;;;;;;;1.80;1.42;;;16.40;68.80;;;;;;5093378;28;20048;-74
2022/10/22 04:41:37;;;;;;;3.08;1.50;;;16.40;68.80;;;;;;5089017;28;20052;-74
2022/10/22 04:44:04;;;;;;;1.77;1.40;;;16.40;68.80;;;;;;5093048;28;20058;-74
2022/10/22 04:46:32;;;;;;;1.90;1.40;;;16.40;68.80;;;;;;5093259;28;20060;-74
2022/10/22 04:48:59;;;;;;;2.15;1.40;;;16.40;68.80;;;;;;5094359;28;20402;-74
2022/10/22 04:51:26;;;;;;;1.80;1.50;;;16.40;68.90;;;;;;5079279;28;20051;-74
2022/10/22 04:53:54;;;;;;;2.03;1.38;;;16.40;68.80;;;;;;5093203;28;20048;-74
2022/10/22 04:56:22;;;;;;;2.33;1.60;;;16.40;68.80;;;;;;5093182;28;20058;-73
2022/10/22 04:58:49;;;;;;;1.80;1.45;;;16.40;68.80;;;;;;5093421;28;20084;-73
2022/10/22 05:01:16;;;;;;;1.92;1.60;;;16.40;68.80;;;;;;5076189;28;20472;-73
2022/10/22 05:03:44;;;;;;;3.15;1.45;;;16.40;68.80;;;;;;5073745;28;20044;-73
2022/10/22 05:06:10;;;;;;;1.98;1.60;;;16.40;68.80;;;;;;5072529;28;20052;-73
2022/10/22 05:08:37;;;;;;;2.58;1.45;;;16.40;68.80;;;;;;5072603;28;20135;-73
2022/10/22 05:11:12;;;;;;;2.50;1.73;;;16.40;68.80;;;;;;5087037;28;20404;-73
2022/10/22 05:13:38;;;;;;;;;;;16.40;68.80;;;;;;5093407;28;20051;-73
2022/10/22 05:16:06;;;;;;;2.65;1.52;;;16.30;68.70;;;;;;5093194;28;19926;-73
2022/10/22 05:18:35;;;;;;;1.50;1.40;;;16.30;68.90;;;;;;5092654;28;20048;-73
2022/10/22 05:21:01;;;;;;;2.05;1.52;;;16.30;68.90;;;;;;5078042;28;20493;-73
2022/10/22 05:23:28;;;;;;;1.83;1.60;;;16.40;68.90;;;;;;5092774;28;20051;-73
2022/10/22 05:25:55;;;;;;;2.13;1.58;;;16.40;68.90;;;;;;5091033;28;20056;-73
2022/10/22 05:28:23;;;;;;;3.35;1.63;;;16.30;68.80;;;;;;5092615;28;20052;-73
2022/10/22 05:30:53;;;;;;;2.15;1.33;;;16.30;68.80;;;;;;5091239;28;20044;-74
2022/10/22 05:33:21;;;;;;;2.15;1.50;;;16.30;68.80;;;;;;5093050;28;20056;-74
2022/10/22 05:35:48;;;;;;;1.77;1.40;;;16.30;68.80;;;;;;5092217;28;20088;-74
2022/10/22 05:38:14;;;;;;;2.03;1.52;;;16.30;68.80;;;;;;5092212;28;20063;-74
2022/10/22 05:40:42;;;;;;;1.73;1.48;;;16.30;68.80;;;;;;5091537;28;20062;-74
2022/10/22 05:43:09;;;;;;;1.63;1.48;;;16.30;68.80;;;;;;5092098;28;20497;-74
2022/10/22 05:45:37;;;;;;;2.13;1.50;;;16.30;68.80;;;;;;5091678;28;20055;-74
2022/10/22 05:48:05;;;;;;;2.30;1.50;;;16.30;68.80;;;;;;5091927;28;20054;-74
2022/10/22 05:50:32;;;;;;;1.63;1.40;;;16.30;68.80;;;;;;5081843;28;20060;-74
2022/10/22 05:52:58;;;;;;;3.13;1.55;;;16.30;68.80;;;;;;5071822;28;20059;-74
2022/10/22 05:55:25;;;;;;;2.65;1.70;;;16.30;68.80;;;;;;5073206;28;20412;-74
2022/10/22 05:57:52;;;;;;;1.55;1.42;;;16.30;68.80;;;;;;5071591;28;20059;-74
2022/10/22 06:00:19;;;;;;;2.78;1.60;;;16.30;68.80;;;;;;5078590;28;20048;-74
2022/10/22 06:02:50;;;;;;;1.50;1.33;;;16.30;68.80;;;;;;5091329;28;20058;-73
2022/10/22 06:05:17;;;;;;;2.25;1.80;;;16.30;68.80;;;;;;5091988;28;20656;-74
2022/10/22 06:07:44;;;;;;;2.50;1.50;;;16.30;68.80;;;;;;5091735;28;20058;-74
2022/10/22 06:10:13;;;;;;;2.88;1.70;;;16.30;68.80;;;;;;5085425;28;20528;-74
2022/10/22 06:12:40;;;;;;;1.65;1.40;;;16.30;68.80;;;;;;5071307;28;20087;-74
2022/10/22 06:15:07;;;;;;;2.63;1.70;;;16.30;68.80;;;;;;5071650;28;20508;-74
2022/10/22 06:17:34;;;;;;;1.73;1.58;;;16.30;68.80;;;;;;5072536;28;20103;-75
2022/10/22 06:20:02;;;;;;;2.03;1.70;;;16.30;68.80;;;;;;5074943;28;20058;-73
2022/10/22 06:22:29;;;;;;;2.75;1.55;;;16.30;68.80;;;;;;5091811;28;20134;-74
2022/10/22 06:24:56;;;;;;;2.42;1.70;;;16.30;68.80;;;;;;5092570;28;20055;-74
2022/10/22 06:27:22;;;;;;;2.10;1.60;;;16.30;68.80;;;;;;5092578;28;20070;-74
2022/10/22 06:29:49;;;;;;;2.47;1.60;;;16.30;68.80;;;;;;5089745;28;20058;-74
2022/10/22 06:32:16;;;;;;;2.80;1.83;;;16.30;68.80;;;;;;5070945;28;20067;-74
2022/10/22 06:34:42;;;;;;;3.08;1.55;;;16.30;68.80;;;;;;5071180;28;20401;-73
2022/10/22 06:37:12;;;;;;;2.10;1.45;;;16.30;68.80;;;;;;5070941;28;20056;-74
2022/10/22 06:39:39;;;;;;;2.42;1.65;;;16.30;68.80;;;;;;5071060;28;20048;-73
2022/10/22 06:42:06;;;;;;;2.72;1.50;;;16.30;68.80;;;;;;5089431;28;20139;-74
2022/10/22 06:44:33;;;;;;;2.45;1.55;;;16.30;68.80;;;;;;5090972;28;20572;-74
2022/10/22 06:46:59;;;;;;;2.47;1.67;;;16.30;68.80;;;;;;5090986;28;20139;-74
2022/10/22 06:49:26;;;;;;;2.10;1.55;;;16.30;68.80;;;;;;5090979;28;20066;-74
2022/10/22 06:51:53;;;;;;;3.30;1.40;;;16.30;68.80;;;;;;5071076;28;20063;-74
2022/10/22 06:54:21;;;;;;;2.28;1.67;;;16.30;68.80;;;;;;5070603;28;20056;-74
2022/10/22 06:56:48;;;;;;;2.70;1.63;;;16.30;68.90;;;;;;5070470;28;20052;-74
2022/10/22 06:59:14;;;;;;;3.53;1.80;;;16.30;68.80;;;;;;5070610;28;20052;-74
2022/10/22 07:01:41;;;;;;;2.10;1.58;;;16.30;68.80;;;;;;5088181;28;20403;-74
2022/10/22 07:04:09;;;;;;;2.15;1.58;;;16.30;68.80;;;;;;5090666;28;20139;-74
2022/10/22 07:06:36;;;;;;;2.15;1.67;;;16.30;68.90;;;;;;5090412;28;20062;-74
2022/10/22 07:09:03;;;;;;;2.05;1.70;;;16.30;68.90;;;;;;5090768;28;20404;-74
2022/10/22 07:11:37;;;;;;;1.80;1.45;;;16.30;68.80;;;;;;5089757;28;20404;-74
2022/10/22 07:14:04;;;;;;;2.05;1.55;;;16.30;69.40;;;;;;5090525;28;20083;-74
2022/10/22 07:16:31;;;;;;;2.00;1.60;;;16.30;68.90;;;;;;5073867;28;20056;-74
2022/10/22 07:18:57;;;;;;;2.05;1.45;;;16.30;68.80;;;;;;5090762;28;20078;-74
2022/10/22 07:21:25;;;;;;;1.70;1.35;;;16.30;68.90;;;;;;5075108;28;20062;-74
2022/10/22 07:23:52;;;;;;;1.98;1.63;;;16.30;68.80;;;;;;5070166;28;20068;-74
2022/10/22 07:26:20;;;;;;;2.03;1.40;;;16.30;68.80;;;;;;5070511;28;20055;-74
2022/10/22 07:28:48;;;;;;;2.75;1.42;;;16.30;68.90;;;;;;5070221;28;20536;-74
2022/10/22 07:31:15;;;;;;;1.60;1.25;;;16.30;68.90;;;;;;5082352;28;20052;-74
2022/10/22 07:33:41;;;;;;;2.28;1.67;;;16.30;68.80;;;;;;5090166;28;20058;-74
2022/10/22 07:36:09;;;;;;;2.28;1.58;;;16.30;68.80;;;;;;5090512;28;20062;-74
2022/10/22 07:38:36;;;;;;;1.88;1.50;;;16.30;68.80;;;;;;5091742;28;20426;-73
2022/10/22 07:41:03;;;;;;;2.00;1.30;;;16.30;68.80;;;;;;5078917;28;20055;-74
2022/10/22 07:43:30;;;;;;;1.80;1.35;;;16.30;68.80;;;;;;5070759;28;20133;-74
2022/10/22 07:45:59;;;;;;;2.00;1.58;;;16.30;68.80;;;;;;5070265;28;20420;-73
2022/10/22 07:48:25;;;;;;;1.70;1.33;;;16.30;68.80;;;;;;5070578;28;20129;-74
2022/10/22 07:50:52;;;;;;;1.52;1.27;;;16.30;68.80;;;;;;5083653;28;20114;-74
2022/10/22 07:53:20;;;;;;;1.80;1.40;;;16.30;68.80;;;;;;5095084;28;20078;-74
2022/10/22 07:55:48;;;;;;;1.80;1.50;;;16.30;68.80;;;;;;5094839;28;20482;-74
2022/10/22 07:58:14;;;;;;;2.00;1.45;;;16.30;68.80;;;;;;5094805;28;20650;-73
2022/10/22 08:00:41;;;;;;;1.58;1.33;;;16.30;68.80;;;;;;5085855;28;20054;-74
2022/10/22 08:03:10;;;;;;;1.80;1.40;;;16.30;68.80;;;;;;5074617;28;20056;-74
2022/10/22 08:05:38;;;;;;;2.92;1.40;;;16.30;68.70;;;;;;5073779;28;20059;-73
2022/10/22 08:08:04;;;;;;;1.80;1.30;;;16.30;68.80;;;;;;5073791;28;20048;-74
2022/10/22 08:10:31;;;;;;;1.25;1.15;;;16.30;68.70;;;;;;5073646;28;20052;-73
2022/10/22 08:12:58;;;;;;;2.85;1.45;;;16.30;68.70;;;;;;5073567;28;20131;-73
2022/10/22 08:15:26;;;;;;;3.63;1.52;;;16.30;68.70;;;;;;5073358;28;20057;-73
2022/10/22 08:17:53;;;;;;;3.13;1.70;;;16.30;68.70;;;;;;5074689;28;20090;-73
2022/10/22 08:20:21;;;;;;;2.65;1.42;;;16.30;68.70;;;;;;5077556;28;20052;-73
2022/10/22 08:22:47;;;;;;;2.33;1.40;;;16.30;68.70;;;;;;5090300;28;20513;-74
2022/10/22 08:25:14;;;;;;;1.63;1.40;;;16.40;68.70;;;;;;5083080;28;20044;-73
2022/10/22 08:27:41;;;;;;;1.90;1.50;;;16.40;68.70;;;;;;5090291;28;20081;-73
2022/10/22 08:30:09;;;;;;;2.58;1.30;;;16.40;68.70;;;;;;5092667;28;20600;-73
2022/10/22 08:32:35;;;;;;;2.58;1.42;;;16.40;68.70;;;;;;5093281;28;20056;-73
2022/10/22 08:35:02;;;;;;;2.95;1.48;;;16.40;68.70;;;;;;5091553;28;20383;-73
2022/10/22 08:37:30;;;;;;;2.35;1.38;;;16.40;68.70;;;;;;5081959;28;20127;-74
2022/10/22 08:39:57;;;;;;;2.28;1.50;;;16.40;68.70;;;;;;5082671;28;20469;-73
2022/10/22 08:42:44;;;;;;;4.38;1.48;;;16.40;68.80;;;;;;5083707;28;20054;-73
2022/10/22 08:45:12;;;;;;;2.53;1.50;;;16.50;68.80;;;;;;5083848;28;20048;-73
2022/10/22 08:47:58;;;;;;;4.25;1.58;;;16.50;68.80;;;;;;5083374;28;20048;-73
2022/10/22 08:50:29;;;;;;;2.58;1.40;;;16.60;68.80;;;;;;5080963;28;20057;-73
2022/10/22 08:52:57;;;;;;;2.28;1.63;;;16.60;68.80;;;;;;5072833;28;20060;-74
2022/10/22 08:55:24;;;;;;;3.67;1.38;;;16.60;68.70;;;;;;5072989;28;20056;-73
2022/10/22 08:57:54;;;;;;;2.72;1.50;;;16.60;68.60;;;;;;5073979;28;20425;-73
2022/10/22 09:00:22;;;;;;;1.90;1.40;;;16.70;68.50;;;;;;5076883;28;20481;-73
2022/10/22 09:02:57;;;;;;;2.38;1.50;;;16.70;68.40;;;;;;5092837;28;20412;-73
2022/10/22 09:05:27;;;;;;;;;;;16.70;68.30;;;;;;5093441;28;20048;-74
2022/10/22 09:07:54;;;;;;;2.30;1.40;;;16.80;68.40;;;;;;5092869;28;19930;-70
2022/10/22 09:10:25;;;;;;;1.90;1.55;;;16.80;68.30;;;;;;5088728;28;20482;-76
2022/10/22 09:12:52;;;;;;;2.92;1.70;;;16.80;68.20;;;;;;5072430;28;20053;-74
2022/10/22 09:15:19;;;;;;;2.13;1.42;;;16.90;68.20;;;;;;5082993;28;20048;-75
2022/10/22 09:17:53;;;;;;;3.15;1.75;;;16.90;68.10;;;;;;5091887;28;20481;-74
2022/10/22 09:20:25;;;;;;;2.95;1.40;;;17.00;68.10;;;;;;5085856;28;20048;-74
2022/10/22 09:22:54;;;;;;;2.95;1.50;;;17.00;68.50;;;;;;5092648;28;20165;-74
2022/10/22 09:25:23;;;;;;;2.28;1.25;;;17.00;67.90;;;;;;5092490;28;20067;-74
2022/10/22 09:27:51;;;;;;;2.33;1.27;;;17.10;68.00;;;;;;5086207;28;20051;-74
2022/10/22 09:30:18;;;;;;;3.97;1.50;;;17.10;67.90;;;;;;5072328;28;20131;-74
2022/10/22 09:32:45;;;;;;;2.83;1.52;;;17.10;67.80;;;;;;5072019;28;20059;-74
2022/10/22 09:35:12;;;;;;;2.78;1.52;;;17.10;67.70;;;;;;5072237;28;20055;-74
2022/10/22 09:37:47;;;;;;;2.42;1.33;;;17.20;67.70;;;;;;5072020;28;20056;-74
2022/10/22 09:40:14;;;;;;;1.80;1.35;;;17.20;67.60;;;;;;5073918;28;20054;-75
2022/10/22 09:42:43;;;;;;;3.50;1.40;;;17.20;67.60;;;;;;5092118;28;20080;-72
2022/10/22 09:45:16;;;;;;;2.53;1.50;;;17.20;67.60;;;;;;5092414;28;20062;-72
2022/10/22 09:47:42;;;;;;;3.50;1.42;;;17.30;67.70;;;;;;5091132;28;20058;-72
2022/10/22 09:50:27;;;;;;;2.70;1.38;;;17.20;67.60;;;;;;5090743;28;20066;-72
2022/10/22 09:52:59;;;;;;;3.28;1.40;;;17.30;67.60;;;;;;5071896;28;20057;-72
2022/10/22 09:55:26;;;;;;;2.15;1.40;;;17.30;67.50;;;;;;5072077;28;20048;-72
2022/10/22 09:57:55;;;;;;;3.47;1.48;;;17.30;67.50;;;;;;5071493;28;20060;-72
2022/10/22 10:00:23;;;;;;;2.90;1.40;;;17.30;67.40;;;;;;5083470;28;20058;-72
2022/10/22 10:02:56;;;;;;;2.03;1.30;;;17.30;67.40;;;;;;5092061;28;20465;-74
2022/10/22 10:05:28;;;;;;;3.20;1.50;;;17.30;67.40;;;;;;5082224;28;20055;-74
2022/10/22 10:07:55;;;;;;;1.85;1.30;;;17.30;67.40;;;;;;5080326;28;20087;-73
2022/10/22 10:10:29;;;;;;;2.25;1.35;;;17.40;67.50;;;;;;5080066;28;20049;-72
2022/10/22 10:12:59;;;;;;;1.92;1.20;;;17.40;67.60;;;;;;5089154;28;20048;-72
2022/10/22 10:15:28;;;;;;;2.15;1.35;;;17.40;67.50;;;;;;5089911;28;20420;-72
2022/10/22 10:18:03;;;;;;;2.80;1.30;;;17.40;67.40;;;;;;5089381;28;20048;-72
2022/10/22 10:20:34;;;;;;;3.17;1.52;;;17.40;67.40;;;;;;5086130;28;20162;-72
2022/10/22 10:23:03;;;;;;;4.82;1.40;;;17.40;67.30;;;;;;5069399;28;20057;-72
2022/10/22 10:25:37;;;;;;;2.97;1.50;;;17.40;67.40;;;;;;5069254;28;20402;-72
2022/10/22 10:28:19;;;;;;;2.65;1.50;;;17.40;67.40;;;;;;5071194;28;20059;-72
2022/10/22 10:30:49;;;;;;;2.40;1.40;;;17.50;67.40;;;;;;5075832;28;20055;-71
2022/10/22 10:33:21;;;;;;;3.55;1.60;;;17.40;67.40;;;;;;5091463;28;20047;-71
2022/10/22 10:35:53;;;;;;;2.15;1.38;;;17.50;67.40;;;;;;5091381;28;20066;-71
2022/10/22 10:38:34;;;;;;;2.08;1.48;;;17.40;67.60;;;;;;5091191;28;20059;-71
2022/10/22 10:41:08;;;;;;;3.05;1.42;;;17.40;67.70;;;;;;5089319;28;20058;-72
2022/10/22 10:43:41;;;;;;;1.98;1.40;;;17.50;67.90;;;;;;5091372;28;20060;-71
2022/10/22 10:46:11;;;;;;;2.53;1.52;;;17.40;67.80;;;;;;5090326;28;20077;-71
2022/10/22 10:48:44;;;;;;;1.70;1.20;;;17.50;67.90;;;;;;5091042;28;20051;-72
2022/10/22 10:51:20;;;;;;;2.88;1.45;;;17.50;67.90;;;;;;5083283;28;20052;-71
2022/10/22 10:53:54;;;;;;;2.50;1.40;;;17.40;67.90;;;;;;5070996;28;20063;-71
2022/10/22 10:56:30;;;;;;;1.92;1.30;;;17.40;67.90;;;;;;5070972;28;20055;-71
2022/10/22 10:59:02;;;;;;;3.03;1.50;;;17.40;68.00;;;;;;5072118;28;20131;-71
2022/10/22 11:01:32;;;;;;;1.67;1.20;;;17.40;68.00;;;;;;5071465;28;20421;-73
2022/10/22 11:04:13;;;;;;;2.78;1.60;;;17.40;68.00;;;;;;5070799;28;20057;-72
2022/10/22 11:06:39;;;;;;;1.73;1.30;;;17.40;68.00;;;;;;5070536;28;20048;-72
2022/10/22 11:09:08;;;;;;;2.38;1.30;;;17.40;68.00;;;;;;5070682;28;20144;-72
2022/10/22 11:11:36;;;;;;;3.28;1.52;;;17.40;68.10;;;;;;5081253;28;20056;-72
2022/10/22 11:14:09;;;;;;;4.10;1.50;;;17.40;68.10;;;;;;5090713;28;20055;-72
2022/10/22 11:16:37;;;;;;;1.75;1.30;;;17.40;68.10;;;;;;5090987;28;20074;-71
2022/10/22 11:19:08;;;;;;;2.38;1.20;;;17.40;68.10;;;;;;5090891;28;20055;-71
2022/10/22 11:21:38;;;;;;;2.10;1.48;;;17.30;68.10;;;;;;5088989;28;20517;-71
2022/10/22 11:24:10;;;;;;;2.30;1.33;;;17.40;68.20;;;;;;5091492;28;20052;-71
2022/10/22 11:26:39;;;;;;;2.50;1.30;;;17.30;68.10;;;;;;5095010;28;20075;-71
2022/10/22 11:29:09;;;;;;;2.88;1.33;;;17.30;68.10;;;;;;5094922;28;20511;-71
2022/10/22 11:31:36;;;;;;;1.60;1.30;;;17.40;68.20;;;;;;5083596;28;20062;-71
2022/10/22 11:34:06;;;;;;;1.95;1.30;;;17.30;68.10;;;;;;5075440;28;20053;-71
2022/10/22 11:36:32;;;;;;;2.28;1.40;;;17.40;68.20;;;;;;5075508;28;20055;-71
2022/10/22 11:38:59;;;;;;;2.20;1.50;;;17.30;68.10;;;;;;5074703;28;20404;-71
2022/10/22 11:41:29;;;;;;;2.75;1.27;;;17.30;68.10;;;;;;5079513;28;20102;-71
2022/10/22 11:44:10;;;;;;;3.45;1.38;;;17.30;68.10;;;;;;5084996;28;20142;-71
2022/10/22 11:46:55;;;;;;;2.60;1.30;;;17.30;68.10;;;;;;5083969;28;20064;-71
2022/10/22 11:49:26;;;;;;;2.33;1.40;;;17.40;68.10;;;;;;5084726;28;20135;-71
2022/10/22 11:52:06;;;;;;;2.10;1.25;;;17.30;68.20;;;;;;5084803;28;20500;-71
2022/10/22 11:54:44;;;;;;;1.90;1.30;;;17.30;68.10;;;;;;5084994;28;20044;-71
2022/10/22 11:57:23;;;;;;;2.45;1.52;;;17.30;68.20;;;;;;5084716;28;20048;-71
2022/10/22 11:59:52;;;;;;;1.85;1.30;;;17.40;68.20;;;;;;5084547;28;20087;-72
2022/10/22 12:02:32;;;;;;;2.60;1.38;;;17.30;68.20;;;;;;5088338;28;20480;-70
2022/10/22 12:05:19;;;;;;;2.85;1.58;;;17.40;68.20;;;;;;5082113;28;20481;-71
2022/10/22 12:07:53;;;;;;;1.88;1.25;;;17.40;68.20;;;;;;5081699;28;20139;-71
2022/10/22 12:10:20;;;;;;;1.70;1.30;;;17.30;68.30;;;;;;5083002;28;20052;-70
2022/10/22 12:12:52;;;;;;;2.00;1.35;;;17.30;68.30;;;;;;5082755;28;20054;-71
2022/10/22 12:15:23;;;;;;;3.53;1.40;;;17.30;68.30;;;;;;5084402;28;20048;-71
2022/10/22 12:17:50;;;;;;;2.38;1.33;;;17.30;68.30;;;;;;5084324;28;20062;-71
2022/10/22 12:20:17;;;;;;;1.48;1.30;;;17.30;68.30;;;;;;5082648;28;20123;-71
2022/10/22 12:22:44;;;;;;;3.15;1.50;;;17.30;68.30;;;;;;5082604;28;20044;-71
2022/10/22 12:25:17;;;;;;;2.22;1.40;;;17.30;68.30;;;;;;5093950;28;20083;-71
2022/10/22 12:27:44;;;;;;;2.28;1.42;;;17.30;68.30;;;;;;5093961;28;20051;-71
2022/10/22 12:30:18;;;;;;;2.38;1.50;;;17.30;68.30;;;;;;5091539;28;20067;-71
2022/10/22 12:32:46;;;;;;;1.77;1.27;;;17.40;68.40;;;;;;5115035;28;20408;-71
2022/10/22 12:35:16;;;;;;;4.65;1.55;;;17.40;68.50;;;;;;5113798;28;20057;-71
2022/10/22 12:37:43;;;;;;;2.40;1.10;;;17.40;68.50;;;;;;5109725;28;20063;-71
2022/10/22 12:40:18;;;;;;;2.47;1.33;;;17.40;68.50;;;;;;5089506;28;20070;-72
2022/10/22 12:42:48;;;;;;;2.20;1.30;;;17.40;68.60;;;;;;5079864;28;20059;-70
2022/10/22 12:45:15;;;;;;;1.73;1.30;;;17.40;68.60;;;;;;5093262;28;20052;-70
2022/10/22 12:47:46;;;;;;;1.88;1.33;;;17.40;68.60;;;;;;5093958;28;20056;-71
2022/10/22 12:50:16;;;;;;;1.83;1.25;;;17.40;68.50;;;;;;5088536;28;20056;-71
2022/10/22 12:52:43;;;;;;;2.95;1.30;;;17.40;68.50;;;;;;5084493;28;20412;-71
2022/10/22 12:55:15;;;;;;;5.05;1.50;;;17.40;68.50;;;;;;5084480;28;20051;-70
2022/10/22 12:57:42;;;;;;;3.30;1.42;;;17.40;68.50;;;;;;5093534;28;20462;-70